Peabody, MA (01961)

6:09 PM EDT on July 01, 2015 (GMT -0400)
Central Peabody | | Change Station
CLOSE
Current Station
Personal Weather Station
Location: Peabody, MA
Elevation: 92 ft
Nearby Weather Stations

Elev 92 ft 42.53 °N, 70.94 °W | Updated 1 second ago

Partly Cloudy
Partly Cloudy
80.4 °F
Feels Like 84 °F
N
0.0
Wind Variable Wind from South
Gusts 4.0 mph

Today
High -- | Low -- °F
--% Chance of Precip.
Yesterday
High -- | Low -- °F
Precip. -- in
5:10 AM 8:25 PM
Full, 100% visible
Pressure 29.67 in
Visibility 10.0 miles
Clouds Few 2400 ft
Few 10000 ft
Heat Index 84 °F
Dew Point 70 °F
Humidity 71%
Rainfall 0.58 in
Snow Depth Not available.
UV 2 out of 12
Pollen 1.40 out of 12
Air Quality Not available.
Flu Activity Not available.
METAR KBVY 012153Z 24009KT 10SM FEW024 FEW100 26/19 A2968 RMK AO2 RAB13E33 SLP046 P0001 T02560194

More Conditions Fewer Conditions

Pressure 29.67 in
Visibility 10.0 miles
Clouds Few 2400 ft
Few 10000 ft
Heat Index 84 °F
Dew Point 70 °F
Humidity 71%
Rainfall 0.58 in
Snow Depth Not available.
UV 2 out of 12
Pollen 1.40 out of 12
Air Quality Not available.
Flu Activity Not available.
METAR KBVY 012153Z 24009KT 10SM FEW024 FEW100 26/19 A2968 RMK AO2 RAB13E33 SLP046 P0001 T02560194

More Conditions Fewer Conditions

10-Day Weather Forecast

×

Almanac

Astronomy

Jul. 01, 2015 Rise Set
Actual Time
Civil Twilight
Nautical Twilight
Astronomical Twilight
Moon
Length of Visible Light
Length of Day
Tomorrow will be .
, % of the Moon is Illuminated

Today's Extremes

State Highs State Lows

Community

WunderPhotos

Upload Photos

1,834,303 photos uploaded!

WunderBlogs® & News

Nearby

Air Quality

  Air Quality AQ Index Pollutant
Not available.

Snow Depth

Station Depth Elevation

Earthquake Activity

City Distance Mag. Time & Date
Minimum magnitude displayed is 2.5.

Coastal Water Temperatures

Place Temperature

Stations

Nearby Weather Stations

Station Location Temp. Windchill Dew Point Humidity Wind Precip. Elev Updated Type